createdAt,value
2019-03-27T00:00:40.601Z,100936.16
2019-03-27T00:03:07.045Z,100942.67
2019-03-27T00:05:33.709Z,100939.34
2019-03-27T00:08:00.053Z,100945.40
2019-03-27T00:10:26.683Z,100948.84
2019-03-27T00:12:53.363Z,100946.74
2019-03-27T00:15:19.737Z,100943.80
2019-03-27T00:17:46.436Z,100947.81
2019-03-27T00:20:13.466Z,100947.88
2019-03-27T00:22:40.109Z,100944.28
2019-03-27T00:25:07.869Z,100944.81
2019-03-27T00:27:34.491Z,100940.38
2019-03-27T00:30:01.126Z,100948.59
2019-03-27T00:32:27.491Z,100948.61
2019-03-27T00:34:53.778Z,100953.53
2019-03-27T00:37:20.424Z,100952.72
2019-03-27T00:39:46.841Z,100949.72
2019-03-27T00:42:14.954Z,100950.84
2019-03-27T00:44:41.254Z,100948.67
2019-03-27T00:47:07.658Z,100952.52
2019-03-27T00:49:34.328Z,100955.84
2019-03-27T00:52:00.694Z,100957.45
2019-03-27T00:54:27.049Z,100956.48
2019-03-27T00:56:54.072Z,100959.42
2019-03-27T00:59:20.691Z,100952.37
2019-03-27T01:01:47.337Z,100948.27
2019-03-27T01:04:13.656Z,100952.26
2019-03-27T01:06:40.018Z,100952.11
2019-03-27T01:09:06.825Z,100951.53
2019-03-27T01:11:33.600Z,100958.67
2019-03-27T01:14:01.059Z,100955.74
2019-03-27T01:16:27.406Z,100954.33
2019-03-27T01:18:54.018Z,100954.15
2019-03-27T01:21:20.328Z,100950.58
2019-03-27T01:23:46.681Z,100947.53
2019-03-27T01:26:12.993Z,100947.78
2019-03-27T01:28:39.360Z,100953.73
2019-03-27T01:31:06.572Z,100953.04
2019-03-27T01:33:32.885Z,100953.69
2019-03-27T01:35:59.545Z,100959.00
2019-03-27T01:38:28.819Z,100963.81
2019-03-27T01:40:54.918Z,100965.96
2019-03-27T01:43:21.228Z,100956.64
2019-03-27T01:45:53.307Z,100961.00
2019-03-27T01:48:16.537Z,100965.91
2019-03-27T01:50:43.204Z,100953.78
2019-03-27T01:53:09.925Z,100968.56
2019-03-27T01:55:36.261Z,100962.59
2019-03-27T01:58:02.728Z,100968.26
2019-03-27T02:00:29.103Z,100956.42
2019-03-27T02:02:55.756Z,100974.40
2019-03-27T02:05:22.093Z,100970.21
2019-03-27T02:07:48.459Z,100973.87
2019-03-27T02:10:14.982Z,100968.84
2019-03-27T02:12:41.315Z,100969.50
2019-03-27T02:15:08.729Z,100969.84
2019-03-27T02:17:35.106Z,100977.67
2019-03-27T02:20:01.518Z,100978.70
2019-03-27T02:22:27.871Z,100983.60
2019-03-27T02:24:54.207Z,100988.73
2019-03-27T02:27:22.445Z,100987.02
2019-03-27T02:29:48.775Z,100978.58
2019-03-27T02:32:15.148Z,100981.82
2019-03-27T02:34:41.747Z,100981.04
2019-03-27T02:37:10.034Z,100982.47
2019-03-27T02:39:36.649Z,100982.84
2019-03-27T02:42:03.195Z,100987.48
2019-03-27T02:44:29.947Z,100988.93
2019-03-27T02:46:56.306Z,100992.23
2019-03-27T02:49:22.667Z,100992.50
2019-03-27T02:51:49.048Z,100993.29
2019-03-27T02:54:15.469Z,100997.72
2019-03-27T02:56:41.801Z,100995.58
2019-03-27T02:59:08.171Z,101000.06
2019-03-27T03:01:34.526Z,100999.27
2019-03-27T03:04:00.849Z,101009.94
2019-03-27T03:06:27.195Z,101006.42
2019-03-27T03:08:53.505Z,100999.11
2019-03-27T03:11:19.812Z,101004.57
2019-03-27T03:13:47.169Z,101012.78
2019-03-27T03:16:13.488Z,101008.48
2019-03-27T03:18:40.081Z,101007.44
2019-03-27T03:21:06.767Z,101009.44
2019-03-27T03:23:33.524Z,101015.95
2019-03-27T03:25:59.874Z,101012.23
2019-03-27T03:28:26.244Z,101010.03
2019-03-27T03:30:52.595Z,101014.28
2019-03-27T03:33:19.232Z,101017.65
2019-03-27T03:35:45.907Z,101009.98
2019-03-27T03:38:12.225Z,101009.59
2019-03-27T03:40:39.674Z,101010.05
2019-03-27T03:43:05.968Z,101006.32
2019-03-27T03:45:32.337Z,101009.13
2019-03-27T03:47:58.687Z,101004.70
2019-03-27T03:50:37.893Z,101005.47
2019-03-27T03:53:07.660Z,101009.03
2019-03-27T03:55:36.467Z,101019.69
2019-03-27T03:58:02.908Z,101020.78
2019-03-27T04:00:30.698Z,101024.91
2019-03-27T04:02:59.045Z,101025.86
2019-03-27T04:05:25.786Z,101030.56
2019-03-27T04:07:52.159Z,101024.25
2019-03-27T04:10:18.521Z,101028.16
2019-03-27T04:12:44.844Z,101022.72
2019-03-27T04:15:11.211Z,101020.06
2019-03-27T04:17:37.519Z,101019.55
2019-03-27T04:20:05.782Z,101016.12
2019-03-27T04:22:32.151Z,101009.98
2019-03-27T04:24:59.237Z,101016.17
2019-03-27T04:27:25.587Z,101020.39
2019-03-27T04:29:52.655Z,101013.94
2019-03-27T04:32:18.978Z,101017.28
2019-03-27T04:34:47.243Z,101025.42
2019-03-27T04:37:13.658Z,101027.33
2019-03-27T04:39:40.051Z,101024.59
2019-03-27T04:42:06.644Z,101026.27
2019-03-27T04:44:32.984Z,101029.41
2019-03-27T04:46:59.305Z,101032.91
2019-03-27T04:49:25.750Z,101035.83
2019-03-27T04:51:52.053Z,101037.89
2019-03-27T04:54:18.407Z,101042.50
2019-03-27T04:56:44.779Z,101043.50
2019-03-27T04:59:11.103Z,101052.85
2019-03-27T05:01:37.788Z,101053.57
2019-03-27T05:04:05.579Z,101053.37
2019-03-27T05:06:31.918Z,101057.61
2019-03-27T05:08:58.300Z,101060.16
2019-03-27T05:11:25.875Z,101064.34
2019-03-27T05:13:52.243Z,101068.64
2019-03-27T05:16:18.589Z,101068.13
2019-03-27T05:18:45.275Z,101069.80
2019-03-27T05:21:11.606Z,101069.02
2019-03-27T05:23:38.480Z,101066.05
2019-03-27T05:26:04.795Z,101070.45
2019-03-27T05:28:31.161Z,101078.92
2019-03-27T05:30:57.501Z,101082.47
2019-03-27T05:33:24.305Z,101086.61
2019-03-27T05:35:50.685Z,101089.75
2019-03-27T05:38:17.006Z,101093.16
2019-03-27T05:40:43.855Z,101095.83
2019-03-27T05:43:10.512Z,101096.83
2019-03-27T05:45:36.880Z,101100.64
2019-03-27T05:48:03.235Z,101103.22
2019-03-27T05:50:29.979Z,101097.38
2019-03-27T05:52:56.786Z,101107.24
2019-03-27T05:55:26.387Z,101110.49
2019-03-27T05:57:51.405Z,101108.94
2019-03-27T06:00:18.589Z,101116.62
2019-03-27T06:02:45.261Z,101111.33
2019-03-27T06:05:11.624Z,101116.38
2019-03-27T06:07:37.988Z,101125.84
2019-03-27T06:10:05.798Z,101115.70
2019-03-27T06:12:32.434Z,101112.06
2019-03-27T06:14:59.094Z,101116.31
2019-03-27T06:17:25.440Z,101118.37
2019-03-27T06:19:51.758Z,101117.41
2019-03-27T06:22:18.094Z,101123.03
2019-03-27T06:24:44.695Z,101116.88
2019-03-27T06:27:11.037Z,101123.83
2019-03-27T06:29:37.772Z,101123.47
2019-03-27T06:32:04.085Z,101126.47
2019-03-27T06:34:30.433Z,101126.70
2019-03-27T06:36:56.747Z,101127.14
2019-03-27T06:39:23.428Z,101135.80
2019-03-27T06:41:49.794Z,101138.80
2019-03-27T06:44:16.152Z,101132.67
2019-03-27T06:46:42.908Z,101147.19
2019-03-27T06:49:09.248Z,101148.26
2019-03-27T06:51:40.400Z,101148.65
2019-03-27T06:54:03.986Z,101152.72
2019-03-27T06:56:30.701Z,101153.93
2019-03-27T06:58:57.013Z,101165.49
2019-03-27T07:01:23.768Z,101149.28
2019-03-27T07:03:50.107Z,101162.01
2019-03-27T07:06:16.470Z,101163.03
2019-03-27T07:08:42.862Z,101154.80
2019-03-27T07:11:09.168Z,101149.06
2019-03-27T07:13:35.526Z,101155.02
2019-03-27T07:16:01.857Z,101152.23
2019-03-27T07:18:39.572Z,101173.86
2019-03-27T07:20:56.587Z,101167.62
2019-03-27T07:23:23.028Z,101175.27
2019-03-27T07:25:49.479Z,101170.52
2019-03-27T07:28:15.848Z,101174.35
2019-03-27T07:30:42.563Z,101179.02
2019-03-27T07:33:09.039Z,101184.28
2019-03-27T07:35:35.787Z,101192.55
2019-03-27T07:38:02.594Z,101203.61
2019-03-27T07:40:29.275Z,101200.36
2019-03-27T07:42:55.908Z,101208.84
2019-03-27T07:45:22.237Z,101206.75
2019-03-27T07:47:48.603Z,101216.31
2019-03-27T07:50:15.454Z,101206.75
2019-03-27T07:52:42.155Z,101204.31
2019-03-27T07:55:18.702Z,101216.28
2019-03-27T07:57:37.152Z,101220.05
2019-03-27T08:00:15.103Z,101218.92
2019-03-27T08:02:41.447Z,101218.05
2019-03-27T08:05:07.866Z,101217.58
2019-03-27T08:07:35.600Z,101215.06
2019-03-27T08:10:05.341Z,101213.09
2019-03-27T08:12:31.683Z,101203.91
2019-03-27T08:14:58.391Z,101205.09
2019-03-27T08:17:24.768Z,101203.70
2019-03-27T08:19:51.094Z,101211.20
2019-03-27T08:22:17.417Z,101213.33
2019-03-27T08:24:43.819Z,101203.45
2019-03-27T08:27:10.458Z,101202.83
2019-03-27T08:29:37.219Z,101210.52
2019-03-27T08:32:03.818Z,101205.70
2019-03-27T08:34:30.187Z,101212.72
2019-03-27T08:36:56.482Z,101207.23
2019-03-27T08:39:22.833Z,101207.14
2019-03-27T08:41:49.152Z,101211.12
2019-03-27T08:44:15.475Z,101213.53
2019-03-27T08:46:41.856Z,101214.73
2019-03-27T08:49:21.188Z,101214.59
2019-03-27T08:51:36.813Z,101213.13
2019-03-27T08:54:03.690Z,101219.28
2019-03-27T08:56:30.639Z,101217.18
2019-03-27T08:58:56.972Z,101218.67
2019-03-27T09:01:23.714Z,101219.64
2019-03-27T09:03:50.062Z,101222.66
2019-03-27T09:06:16.785Z,101215.97
2019-03-27T09:08:43.627Z,101233.92
2019-03-27T09:11:10.455Z,101218.09
2019-03-27T09:13:37.232Z,101213.45
2019-03-27T09:16:03.648Z,101217.78
2019-03-27T09:18:30.386Z,101206.98
2019-03-27T09:20:56.993Z,101227.48
2019-03-27T09:23:23.328Z,101221.55
2019-03-27T09:25:49.644Z,101212.84
2019-03-27T09:28:16.065Z,101209.10
2019-03-27T09:30:42.765Z,101221.69
2019-03-27T09:33:09.514Z,101227.27
2019-03-27T09:35:37.855Z,101226.88
2019-03-27T09:38:04.454Z,101227.27
2019-03-27T09:40:31.356Z,101224.91
2019-03-27T09:42:57.982Z,101232.63
2019-03-27T09:45:24.590Z,101231.45
2019-03-27T09:47:51.052Z,101234.08
2019-03-27T09:50:17.482Z,101242.98
2019-03-27T09:52:44.336Z,101235.46
2019-03-27T09:55:11.204Z,101236.73
2019-03-27T09:57:37.541Z,101246.31
2019-03-27T10:00:08.434Z,101243.31
2019-03-27T10:02:34.800Z,101244.30
2019-03-27T10:05:01.203Z,101244.86
2019-03-27T10:07:27.845Z,101251.33
2019-03-27T10:09:54.615Z,101252.42
2019-03-27T10:12:20.945Z,101255.98
2019-03-27T10:14:49.188Z,101256.12
2019-03-27T10:17:15.863Z,101244.97
2019-03-27T10:19:42.238Z,101240.81
2019-03-27T10:22:08.561Z,101240.25
2019-03-27T10:24:35.094Z,101240.87
2019-03-27T10:27:01.786Z,101239.38
2019-03-27T10:29:28.438Z,101248.58
2019-03-27T10:31:55.145Z,101244.11
2019-03-27T10:34:21.819Z,101237.89
2019-03-27T10:36:48.171Z,101239.89
2019-03-27T10:39:14.511Z,101242.30
2019-03-27T10:41:40.984Z,101237.05
2019-03-27T10:44:08.784Z,101240.18
2019-03-27T10:46:35.150Z,101249.66
2019-03-27T10:49:01.469Z,101237.39
2019-03-27T10:51:28.051Z,101234.56
2019-03-27T10:53:54.393Z,101243.36
2019-03-27T10:56:22.054Z,101228.31
2019-03-27T10:58:48.376Z,101227.58
2019-03-27T11:01:16.347Z,101240.18
2019-03-27T11:03:43.189Z,101239.19
2019-03-27T11:06:09.561Z,101252.89
2019-03-27T11:08:35.899Z,101248.34
2019-03-27T11:11:02.512Z,101254.53
2019-03-27T11:13:28.948Z,101250.70
2019-03-27T11:15:55.335Z,101257.52
2019-03-27T11:18:21.747Z,101244.85
2019-03-27T11:20:48.111Z,101238.35
2019-03-27T11:23:14.779Z,101241.70
2019-03-27T11:25:41.611Z,101240.70
2019-03-27T11:28:08.269Z,101250.46
2019-03-27T11:30:38.724Z,101243.06
2019-03-27T11:33:05.519Z,101243.16
2019-03-27T11:35:32.249Z,101244.06
2019-03-27T11:37:58.945Z,101249.70
2019-03-27T11:40:25.753Z,101256.81
2019-03-27T11:42:52.125Z,101250.70
2019-03-27T11:45:18.478Z,101254.77
2019-03-27T11:47:44.839Z,101256.05
2019-03-27T11:50:11.379Z,101258.13
2019-03-27T11:52:37.765Z,101255.27
2019-03-27T11:55:04.442Z,101247.28
2019-03-27T11:57:31.204Z,101257.37
2019-03-27T11:59:57.869Z,101243.96
2019-03-27T12:02:24.314Z,101257.09
2019-03-27T12:04:50.639Z,101248.02
2019-03-27T12:07:17.349Z,101247.70
2019-03-27T12:09:43.683Z,101245.48
2019-03-27T12:12:10.492Z,101248.55
2019-03-27T12:14:37.252Z,101246.49
2019-03-27T12:17:04.029Z,101244.14
2019-03-27T12:19:30.513Z,101240.99
2019-03-27T12:21:57.577Z,101240.34
2019-03-27T12:24:24.416Z,101243.56
2019-03-27T12:26:51.161Z,101249.70
2019-03-27T12:29:18.290Z,101241.05
2019-03-27T12:31:45.266Z,101249.25
2019-03-27T12:34:11.662Z,101251.20
2019-03-27T12:36:38.302Z,101259.94
2019-03-27T12:39:05.950Z,101253.84
2019-03-27T12:41:33.135Z,101253.95
2019-03-27T12:44:02.406Z,101256.96
2019-03-27T12:46:28.274Z,101268.32
2019-03-27T12:48:55.441Z,101255.73
2019-03-27T12:51:21.913Z,101255.05
2019-03-27T12:53:48.262Z,101247.31
2019-03-27T12:56:14.908Z,101251.16
2019-03-27T12:58:42.123Z,101247.88
2019-03-27T13:01:08.526Z,101239.33
2019-03-27T13:03:35.246Z,101250.14
2019-03-27T13:06:01.600Z,101250.44
2019-03-27T13:08:28.290Z,101246.85
2019-03-27T13:10:54.659Z,101244.92
2019-03-27T13:13:21.380Z,101247.05
2019-03-27T13:15:48.018Z,101248.06
2019-03-27T13:18:15.683Z,101243.59
2019-03-27T13:20:47.165Z,101244.02
2019-03-27T13:23:14.792Z,101205.55
2019-03-27T13:25:41.238Z,101236.18
2019-03-27T13:28:07.706Z,101237.28
2019-03-27T13:30:34.399Z,101238.36
2019-03-27T13:33:00.878Z,101239.91
2019-03-27T13:35:27.340Z,101236.97
2019-03-27T13:37:54.007Z,101236.09
2019-03-27T13:40:20.800Z,101233.02
2019-03-27T13:42:47.305Z,101241.14
2019-03-27T13:45:14.701Z,101243.83
2019-03-27T13:47:41.071Z,101242.14
2019-03-27T13:50:13.047Z,101239.51
2019-03-27T13:52:39.760Z,101230.02
2019-03-27T13:55:06.243Z,101236.09
2019-03-27T13:57:32.699Z,101231.69
2019-03-27T13:59:59.060Z,101232.53
2019-03-27T14:02:25.446Z,101233.30
2019-03-27T14:04:51.788Z,101231.20
2019-03-27T14:07:18.211Z,101237.44
2019-03-27T14:09:44.704Z,101238.00
2019-03-27T14:12:11.049Z,101229.56
2019-03-27T14:14:49.609Z,101232.20
2019-03-27T14:17:05.646Z,101227.05
2019-03-27T14:19:32.314Z,101224.08
2019-03-27T14:21:59.118Z,101225.55
2019-03-27T14:24:25.918Z,101221.50
2019-03-27T14:26:52.354Z,101227.94
2019-03-27T14:29:20.176Z,101223.20
2019-03-27T14:31:46.838Z,101224.79
2019-03-27T14:34:13.547Z,101226.86
2019-03-27T14:36:39.982Z,101222.93
2019-03-27T14:39:06.927Z,101227.52
2019-03-27T14:41:33.695Z,101222.52
2019-03-27T14:44:00.308Z,101214.95
2019-03-27T14:46:26.766Z,101210.34
2019-03-27T14:48:53.203Z,101212.33
2019-03-27T14:51:19.943Z,101208.09
2019-03-27T14:53:46.666Z,101219.91
2019-03-27T14:56:14.290Z,101223.51
2019-03-27T14:58:40.647Z,101227.03
2019-03-27T15:01:07.044Z,101229.98
2019-03-27T15:03:33.722Z,101226.34
2019-03-27T15:06:00.497Z,101230.31
2019-03-27T15:08:27.217Z,101224.45
2019-03-27T15:10:54.582Z,101223.76
2019-03-27T15:13:20.929Z,101221.78
2019-03-27T15:15:47.329Z,101226.22
2019-03-27T15:18:14.168Z,101221.31
2019-03-27T15:20:40.603Z,101217.70
2019-03-27T15:23:06.969Z,101222.53
2019-03-27T15:25:33.316Z,101233.13
2019-03-27T15:27:59.723Z,101230.89
2019-03-27T15:30:26.444Z,101224.23
2019-03-27T15:32:52.758Z,101223.23
2019-03-27T15:35:19.541Z,101216.80
2019-03-27T15:37:46.544Z,101223.70
2019-03-27T15:40:14.075Z,101217.88
2019-03-27T15:42:40.794Z,101223.72
2019-03-27T15:45:08.480Z,101213.73
2019-03-27T15:47:36.500Z,101220.69
2019-03-27T15:50:04.793Z,101214.47
2019-03-27T15:52:36.860Z,101215.05
2019-03-27T15:55:04.681Z,101214.48
2019-03-27T15:57:31.119Z,101215.73
2019-03-27T15:59:58.738Z,101211.60
2019-03-27T16:02:27.406Z,101204.90
2019-03-27T16:04:53.778Z,101216.05
2019-03-27T16:07:20.268Z,101209.13
2019-03-27T16:09:49.471Z,101209.23
2019-03-27T16:12:15.779Z,101209.38
2019-03-27T16:14:42.737Z,101216.25
2019-03-27T16:17:13.771Z,101208.80
2019-03-27T16:19:39.262Z,101198.94
2019-03-27T16:22:05.637Z,101208.07
2019-03-27T16:24:32.515Z,101215.91
2019-03-27T16:27:04.718Z,101215.28
2019-03-27T16:29:27.482Z,101216.38
2019-03-27T16:31:53.836Z,101211.21
2019-03-27T16:34:27.159Z,101218.70
2019-03-27T16:36:55.603Z,101210.94
2019-03-27T16:39:22.228Z,101216.03
2019-03-27T16:41:48.583Z,101214.83
2019-03-27T16:44:15.609Z,101217.22
2019-03-27T16:46:42.250Z,101199.29
2019-03-27T16:49:08.623Z,101204.67
2019-03-27T16:51:35.324Z,101208.19
2019-03-27T16:54:01.658Z,101207.36
2019-03-27T16:56:28.021Z,101204.98
2019-03-27T16:58:54.352Z,101206.63
2019-03-27T17:01:21.057Z,101212.87
2019-03-27T17:03:47.679Z,101210.19
2019-03-27T17:06:14.209Z,101219.45
2019-03-27T17:08:40.571Z,101221.06
2019-03-27T17:11:06.979Z,101224.03
2019-03-27T17:13:33.312Z,101224.27
2019-03-27T17:15:59.798Z,101228.47
2019-03-27T17:18:28.110Z,101233.27
2019-03-27T17:20:54.864Z,101237.84
2019-03-27T17:23:21.741Z,101237.27
2019-03-27T17:25:48.179Z,101237.53
2019-03-27T17:28:15.934Z,101242.13
2019-03-27T17:30:43.268Z,101240.77
2019-03-27T17:33:09.804Z,101246.33
2019-03-27T17:35:36.310Z,101229.09
2019-03-27T17:38:03.004Z,101244.23
2019-03-27T17:41:46.662Z,101247.77
2019-03-27T17:44:52.382Z,101246.62
2019-03-27T17:47:31.936Z,101256.58
2019-03-27T17:49:58.335Z,101255.03
2019-03-27T17:52:24.754Z,101260.98
2019-03-27T17:54:51.220Z,101266.04
2019-03-27T17:57:17.608Z,101269.02
2019-03-27T17:59:44.056Z,101273.20
2019-03-27T18:02:12.326Z,101274.64
2019-03-27T18:04:38.960Z,101265.72
2019-03-27T18:07:05.946Z,101271.59
2019-03-27T18:09:32.341Z,101270.92
2019-03-27T18:12:04.996Z,101270.14
2019-03-27T18:14:34.228Z,101270.92
2019-03-27T18:17:00.656Z,101277.08
2019-03-27T18:19:49.049Z,101271.98
2019-03-27T18:22:22.186Z,101274.92
2019-03-27T18:24:48.568Z,101270.82
2019-03-27T18:27:21.640Z,101272.61
2019-03-27T18:29:48.422Z,101276.78
2019-03-27T18:32:14.882Z,101275.14
2019-03-27T18:34:41.242Z,101271.67
2019-03-27T18:37:07.655Z,101263.29
2019-03-27T18:39:35.621Z,101273.39
2019-03-27T18:42:01.969Z,101277.25
2019-03-27T18:44:28.303Z,101278.22
2019-03-27T18:46:54.695Z,101280.78
2019-03-27T18:49:21.383Z,101284.02
2019-03-27T18:51:48.142Z,101282.64
2019-03-27T18:54:14.762Z,101286.95
2019-03-27T18:56:42.131Z,101295.26
2019-03-27T18:59:08.795Z,101290.52
2019-03-27T19:01:35.284Z,101290.13
2019-03-27T19:04:04.181Z,101295.75
2019-03-27T19:06:30.883Z,101300.33
2019-03-27T19:08:57.224Z,101298.77
2019-03-27T19:11:24.121Z,101289.98
2019-03-27T19:13:50.934Z,101289.06
2019-03-27T19:16:17.265Z,101292.08
2019-03-27T19:18:44.041Z,101292.29
2019-03-27T19:21:10.387Z,101286.58
2019-03-27T19:23:37.593Z,101290.44
2019-03-27T19:26:03.957Z,101289.34
2019-03-27T19:28:30.330Z,101280.21
2019-03-27T19:30:56.875Z,101280.06
2019-03-27T19:33:24.680Z,101284.45
2019-03-27T19:35:54.008Z,101285.55
2019-03-27T19:38:20.843Z,101285.38
2019-03-27T19:40:47.266Z,101287.29
2019-03-27T19:43:13.913Z,101290.30
2019-03-27T19:45:42.610Z,101290.69
2019-03-27T19:48:09.542Z,101290.30
2019-03-27T19:50:36.441Z,101289.06
2019-03-27T19:53:04.603Z,101287.18
2019-03-27T19:55:31.408Z,101298.09
2019-03-27T19:57:57.814Z,101292.70
2019-03-27T20:00:25.228Z,101294.41
2019-03-27T20:02:51.917Z,101293.14
2019-03-27T20:05:18.312Z,101295.26
2019-03-27T20:07:45.197Z,101297.80
2019-03-27T20:10:12.185Z,101296.95
2019-03-27T20:12:39.622Z,101304.80
2019-03-27T20:15:12.440Z,101303.66
2019-03-27T20:17:35.554Z,101301.59
2019-03-27T20:20:07.359Z,101303.97
2019-03-27T20:22:34.464Z,101305.30
2019-03-27T20:25:01.191Z,101302.97
2019-03-27T20:27:27.656Z,101306.61
2019-03-27T20:29:54.156Z,101302.17
2019-03-27T20:32:20.890Z,101309.75
2019-03-27T20:34:47.556Z,101315.45
2019-03-27T20:37:13.888Z,101313.21
2019-03-27T20:39:42.614Z,101323.06
2019-03-27T20:42:08.578Z,101329.25
2019-03-27T20:44:35.313Z,101327.56
2019-03-27T20:47:01.647Z,101322.16
2019-03-27T20:49:28.424Z,101324.63
2019-03-27T20:51:55.388Z,101333.11
2019-03-27T20:54:21.783Z,101325.87
2019-03-27T20:56:48.124Z,101330.85
2019-03-27T20:59:14.832Z,101328.24
2019-03-27T21:01:41.596Z,101329.95
2019-03-27T21:04:07.943Z,101334.13
2019-03-27T21:06:34.380Z,101333.84
2019-03-27T21:09:01.106Z,101336.13
2019-03-27T21:11:29.411Z,101338.02
2019-03-27T21:13:56.224Z,101339.66
2019-03-27T21:16:22.550Z,101333.77
2019-03-27T21:18:49.208Z,101328.14
2019-03-27T21:21:15.522Z,101340.52
2019-03-27T21:23:42.363Z,101334.16
2019-03-27T21:26:09.818Z,101334.22
2019-03-27T21:28:36.477Z,101339.14
2019-03-27T21:31:02.808Z,101346.11
2019-03-27T21:33:29.141Z,101338.61
2019-03-27T21:35:55.512Z,101337.70
2019-03-27T21:38:21.886Z,101341.06
2019-03-27T21:40:48.539Z,101341.38
2019-03-27T21:43:15.263Z,101341.48
2019-03-27T21:45:43.033Z,101346.48
2019-03-27T21:48:09.788Z,101340.73
2019-03-27T21:50:36.175Z,101345.61
2019-03-27T21:53:02.948Z,101348.48
2019-03-27T21:55:41.895Z,101346.36
2019-03-27T21:57:57.631Z,101349.02
2019-03-27T22:00:37.390Z,101344.61
2019-03-27T22:03:04.683Z,101339.78
2019-03-27T22:05:30.999Z,101330.61
2019-03-27T22:07:57.397Z,101336.23
2019-03-27T22:10:23.742Z,101330.44
2019-03-27T22:12:50.502Z,101333.58
2019-03-27T22:15:16.806Z,101338.86
2019-03-27T22:17:43.548Z,101340.28
2019-03-27T22:20:10.443Z,101341.20
2019-03-27T22:22:37.053Z,101349.20
2019-03-27T22:25:06.286Z,101334.03
2019-03-27T22:27:32.615Z,101340.44
2019-03-27T22:29:59.220Z,101343.53
2019-03-27T22:32:25.566Z,101339.48
2019-03-27T22:34:53.316Z,101353.03
2019-03-27T22:37:19.941Z,101312.30
2019-03-27T22:39:46.417Z,101338.13
2019-03-27T22:42:12.783Z,101341.14
2019-03-27T22:44:39.446Z,101356.55
2019-03-27T22:47:06.095Z,101355.30
2019-03-27T22:49:32.837Z,101354.91
2019-03-27T22:51:59.174Z,101354.46
2019-03-27T22:54:25.614Z,101348.42
2019-03-27T22:56:51.940Z,101344.33
2019-03-27T22:59:18.351Z,101347.45
2019-03-27T23:01:45.203Z,101341.66
2019-03-27T23:04:11.540Z,101342.00
2019-03-27T23:06:38.485Z,101336.08
2019-03-27T23:09:04.933Z,101340.16
2019-03-27T23:11:31.760Z,101331.48
2019-03-27T23:13:58.111Z,101327.70
2019-03-27T23:16:27.222Z,101328.13
2019-03-27T23:18:53.657Z,101330.79
2019-03-27T23:21:20.071Z,101325.89
2019-03-27T23:23:46.774Z,101318.66
2019-03-27T23:26:13.430Z,101323.31
2019-03-27T23:28:40.175Z,101325.31
2019-03-27T23:31:06.918Z,101322.64
2019-03-27T23:33:33.275Z,101326.05
2019-03-27T23:35:59.906Z,101324.73
2019-03-27T23:38:26.296Z,101320.33
2019-03-27T23:40:52.960Z,101318.29
2019-03-27T23:43:19.674Z,101322.55
2019-03-27T23:45:46.029Z,101319.03
2019-03-27T23:48:12.661Z,101317.34
2019-03-27T23:50:38.994Z,101325.72
2019-03-27T23:53:05.361Z,101320.39
2019-03-27T23:55:31.963Z,101322.94
2019-03-27T23:57:58.298Z,101320.71
